ADDS METAR Data INFO
IDs: Format: Raw Decoded Include TAF

Data at: 0255 UTC 21 Oct 2017

KIFA 210255Z AUTO 16014G21KT 10SM CLR 18/11 A2984 RMK AO2 T01750107
KIFA 210235Z AUTO 16014KT 10SM CLR 18/11 A2984 RMK AO2 T01760107
KIFA 210215Z AUTO 16015G20KT 10SM CLR 18/11 A2984 RMK AO2 T01780108
KIFA 210155Z AUTO 16013KT 10SM CLR 18/11 A2984 RMK AO2 T01800106
KIFA 210135Z AUTO 16012G19KT 10SM CLR 18/11 A2984 RMK AO2 T01810106
KIFA 210115Z AUTO 16013G19KT 10SM CLR 19/11 A2985 RMK AO2 T01850109
KIFA 210055Z AUTO 16012G21KT 10SM CLR 19/11 A2984 RMK AO2 T01900109
KIFA 210035Z AUTO 16015G21KT 10SM CLR 19/11 A2984 RMK AO2 T01930107
KIFA 210015Z AUTO 16016G22KT 10SM CLR 20/11 A2984 RMK AO2 T01950107
KIFA 202355Z AUTO 15012G19KT 10SM CLR 20/11 A2984 RMK AO2 T01950106 10241 20195
KIFA 202335Z AUTO 16013G19KT 10SM CLR 20/10 A2984 RMK AO2 T02010100
KIFA 202315Z AUTO 16016G20KT 10SM CLR 21/10 A2984 RMK AO2 T02060098
KIFA 202255Z AUTO 16013G17KT 10SM CLR 21/10 A2985 RMK AO2 T02070104
KIFA 202235Z AUTO 16013G18KT 10SM CLR 21/10 A2985 RMK AO2 T02120099
KIFA 202215Z AUTO 16016G20KT 10SM CLR 22/10 A2985 RMK AO2 T02190099
KIFA 202155Z AUTO 15013G25KT 10SM CLR 22/10 A2986 RMK AO2 T02230100
KIFA 202135Z AUTO 15017G22KT 10SM CLR 23/10 A2986 RMK AO2 T02260104
KIFA 202115Z AUTO 16018G24KT 10SM CLR 24/11 A2986 RMK AO2 T02370107
KIFA 202055Z AUTO 15015KT 10SM CLR 23/11 A2987 RMK AO2 T02330112
KIFA 202035Z AUTO 16018G24KT 10SM CLR 24/11 A2988 RMK AO2 T02380111
KIFA 202015Z AUTO 17017G27KT 10SM CLR 24/10 A2988 RMK AO2 T02380099
KIFA 201955Z AUTO 17017G24KT 10SM CLR 24/11 A2989 RMK AO2 T02370111
KIFA 201935Z AUTO 16016G24KT 10SM CLR 24/12 A2990 RMK AO2 T02360116
KIFA 201915Z AUTO 18015G23KT 10SM CLR 23/11 A2991 RMK AO2 T02260109
KIFA 201855Z AUTO 16017KT 10SM CLR 23/12 A2992 RMK AO2 T02340117
KIFA 201835Z AUTO 17014G18KT 10SM CLR 23/12 A2994 RMK AO2 T02300119
KIFA 201815Z AUTO 18016G21KT 10SM CLR 23/12 A2995 RMK AO2 T02300117
KIFA 201755Z AUTO 18018G22KT 10SM CLR 23/12 A2996 RMK AO2 T02250116 10230 20116
KIFA 201735Z AUTO 19014G18KT 10SM CLR 23/12 A2997 RMK AO2 T02280117
KIFA 201715Z AUTO 17012KT 10SM CLR 22/12 A2998 RMK AO2 T02200119
KIFA 201655Z AUTO 18016G20KT 10SM CLR 22/12 A2999 RMK AO2 T02160119
KIFA 201635Z AUTO 18015G20KT 10SM CLR 21/12 A3000 RMK AO2 T02110119
KIFA 201615Z AUTO 19012G17KT 10SM CLR 20/12 A3001 RMK AO2 T01970120
KIFA 201555Z AUTO 19013G19KT 10SM CLR 19/12 A3001 RMK AO2 T01920121
KIFA 201535Z AUTO 18013G22KT 10SM CLR 19/12 A3002 RMK AO2 T01870123
KIFA 201515Z AUTO 19011G15KT 10SM CLR 18/13 A3003 RMK AO2 T01750125
KIFA 201455Z AUTO 17011G15KT 10SM CLR 16/12 A3003 RMK AO2 T01610122
KIFA 201435Z AUTO 17009G14KT 10SM CLR 15/12 A3004 RMK AO2 T01510121
KIFA 201415Z AUTO 17008KT 10SM CLR 14/12 A3004 RMK AO2 T01370116
KIFA 201355Z AUTO 16007KT 10SM CLR 13/11 A3004 RMK AO2 T01250109
KIFA 201335Z AUTO 16007KT 10SM CLR 12/11 A3003 RMK AO2 T01210105
KIFA 201315Z AUTO 16006KT 10SM CLR 12/11 A3003 RMK AO2 T01210106
KIFA 201255Z AUTO 17006KT 10SM CLR 12/10 A3003 RMK AO2 T01160102
KIFA 201235Z AUTO 17006KT 10SM CLR 12/10 A3003 RMK AO2 T01170102
KIFA 201215Z AUTO 18006KT 10SM CLR 12/10 A3003 RMK AO2 T01170102
KIFA 201155Z AUTO 18007KT 10SM CLR 12/11 A3003 RMK AO2 T01210105 10142 20120
KIFA 201135Z AUTO 17007KT 10SM CLR 12/10 A3003 RMK AO2 T01200104
KIFA 201115Z AUTO 18006KT 10SM CLR 12/11 A3003 RMK AO2 T01210105
KIFA 201055Z AUTO 17005KT 10SM CLR 12/10 A3003 RMK AO2 T01210103
KIFA 201035Z AUTO 18007KT 10SM CLR 13/11 A3003 RMK AO2 T01250105
KIFA 201015Z AUTO 18007KT 10SM CLR 13/11 A3002 RMK AO2 T01310107
KIFA 200955Z AUTO 19007KT 10SM CLR 13/11 A3002 RMK AO2 T01300106
KIFA 200915Z AUTO 19008KT 10SM CLR 13/11 A3002 RMK AO2 T01330108
KIFA 200855Z AUTO 19008KT 10SM CLR 14/11 A3002 RMK AO2 T01370110
KIFA 200835Z AUTO 19009KT 10SM CLR 14/11 A3002 RMK AO2 T01400110
KIFA 200815Z AUTO 19009KT 10SM CLR 14/11 A3002 RMK AO2 T01400110
KIFA 200755Z AUTO 19008KT 10SM CLR 14/11 A3002 RMK AO2 T01400111
KIFA 200735Z AUTO 19008KT 10SM CLR 14/11 A3002 RMK AO2 T01420111
KIFA 200715Z AUTO 19008KT 10SM CLR 14/11 A3002 RMK AO2 T01400110
KIFA 200655Z AUTO 18009KT 10SM CLR 14/11 A3002 RMK AO2 T01390110
KIFA 200635Z AUTO 18006KT 10SM CLR 14/11 A3002 RMK AO2 T01360110
KIFA 200615Z AUTO 17006KT 10SM CLR 13/11 A3002 RMK AO2 T01280107
KIFA 200555Z AUTO 17005KT 10SM CLR 13/11 A3002 RMK AO2 T01300108 10170 20127 402350040
KIFA 200535Z AUTO 16005KT 10SM CLR 13/11 A3002 RMK AO2 T01280107
KIFA 200515Z AUTO 15006KT 10SM CLR 13/11 A3002 RMK AO2 T01310110
KIFA 200455Z AUTO 15007KT 10SM CLR 13/11 A3002 RMK AO2 T01320110
KIFA 200435Z AUTO 15006KT 10SM CLR 14/11 A3003 RMK AO2 T01400114
KIFA 200415Z AUTO 16007KT 10SM CLR 14/12 A3003 RMK AO2 T01410115
KIFA 200355Z AUTO 15007KT 10SM CLR 14/12 A3003 RMK AO2 T01430115
KIFA 200335Z AUTO 16008KT 10SM CLR 15/12 A3003 RMK AO2 T01500117
KIFA 200315Z AUTO 16007KT 10SM CLR 15/12 A3003 RMK AO2 T01510117
KIFA 200255Z AUTO 16009KT 10SM CLR 16/12 A3003 RMK AO2 T01560118
KIFA 200235Z AUTO 15007KT 10SM CLR 14/11 A3003 RMK AO2 T01430111
KIFA 200215Z AUTO 15007KT 10SM CLR 15/11 A3003 RMK AO2 T01450110
KIFA 200155Z AUTO 14006KT 10SM CLR 15/11 A3004 RMK AO2 T01500110
KIFA 200135Z AUTO 14007KT 10SM CLR 15/11 A3004 RMK AO2 T01530110
KIFA 200115Z AUTO 15007KT 10SM CLR 16/11 A3004 RMK AO2 T01550106
KIFA 200055Z AUTO 15008KT 10SM CLR 16/11 A3004 RMK AO2 T01620105
KIFA 200035Z AUTO 15008KT 10SM CLR 16/10 A3004 RMK AO2 T01600097
KIFA 200015Z AUTO 15007KT 10SM CLR 16/10 A3004 RMK AO2 T01640095
KIFA 192355Z AUTO 15007KT 10SM CLR 17/09 A3004 RMK AO2 T01700093 10235 20170
KIFA 192335Z AUTO 14005KT 10SM CLR 19/09 A3004 RMK AO2 T01870090
KIFA 192315Z AUTO 13006KT 10SM CLR 21/09 A3004 RMK AO2 T02090085
KIFA 192255Z AUTO 14006KT 10SM CLR 22/08 A3004 RMK AO2 T02190083
KIFA 192235Z AUTO 14009KT 10SM CLR 23/08 A3004 RMK AO2 T02250082
KIFA 192215Z AUTO 16012G16KT 10SM CLR 23/08 A3004 RMK AO2 T02290080
KIFA 192155Z AUTO 15010KT 10SM CLR 23/07 A3004 RMK AO2 T02300069
KIFA 192135Z AUTO 15011G16KT 10SM CLR 23/07 A3005 RMK AO2 T02330069
KIFA 192115Z AUTO 16014G18KT 10SM CLR 24/07 A3005 RMK AO2 T02350066
KIFA 192055Z AUTO 14010G17KT 10SM CLR 24/06 A3006 RMK AO2 T02350060
KIFA 192035Z AUTO 16014KT 10SM CLR 24/06 A3006 RMK AO2 T02350059
KIFA 192015Z AUTO 15011KT 10SM CLR 23/04 A3007 RMK AO2 T02310043
KIFA 191955Z AUTO 15013G18KT 10SM CLR 23/04 A3008 RMK AO2 T02270037
KIFA 191935Z AUTO 15012G15KT 10SM CLR 23/03 A3009 RMK AO2 T02250034
KIFA 191915Z AUTO 14011G14KT 10SM CLR 22/02 A3009 RMK AO2 T02220024
KIFA 191855Z AUTO 14010KT 10SM CLR 22/02 A3010 RMK AO2 T02190016
KIFA 191835Z AUTO 15013KT 10SM CLR 21/01 A3011 RMK AO2 T02110007
KIFA 191815Z AUTO 14013G17KT 10SM CLR 20/01 A3012 RMK AO2 T02040007
KIFA 191755Z AUTO 14011G16KT 10SM CLR 20/01 A3013 RMK AO2 T01990005 10199 20040
KIFA 191735Z AUTO 13009KT 10SM CLR 20/00 A3014 RMK AO2 T01950004
KIFA 191715Z AUTO 13007KT 10SM CLR 20/01 A3015 RMK AO2 T01950006
KIFA 191655Z AUTO 12010G15KT 10SM CLR 19/00 A3015 RMK AO2 T01880003
KIFA 191635Z AUTO 12011KT 10SM CLR 18/00 A3015 RMK AO2 T01781001
KIFA 191615Z AUTO 12010G14KT 10SM CLR 17/01 A3015 RMK AO2 T01700005
KIFA 191555Z AUTO 12010G14KT 10SM CLR 17/00 A3015 RMK AO2 T01660000
KIFA 191535Z AUTO 12007KT 10SM CLR 15/02 A3016 RMK AO2 T01510023
KIFA 191515Z AUTO 13006KT 10SM CLR 14/03 A3016 RMK AO2 T01410030